createdAt,value
2017-09-25T00:02:25.843Z,14.30
2017-09-25T00:04:53.351Z,14.30
2017-09-25T00:07:20.821Z,14.20
2017-09-25T00:09:50.046Z,14.20
2017-09-25T00:12:17.518Z,14.20
2017-09-25T00:14:44.983Z,14.20
2017-09-25T00:17:12.463Z,14.20
2017-09-25T00:19:39.922Z,14.20
2017-09-25T00:22:07.403Z,14.10
2017-09-25T00:24:35.631Z,14.10
2017-09-25T00:27:03.112Z,14.10
2017-09-25T00:29:30.581Z,14.00
2017-09-25T00:31:58.067Z,13.90
2017-09-25T00:34:26.311Z,13.60
2017-09-25T00:36:53.791Z,13.60
2017-09-25T00:39:21.246Z,13.60
2017-09-25T00:41:48.719Z,13.60
2017-09-25T00:44:16.967Z,13.60
2017-09-25T00:46:44.455Z,13.50
2017-09-25T00:49:12.698Z,13.40
2017-09-25T00:51:40.176Z,13.40
2017-09-25T00:54:07.632Z,13.40
2017-09-25T00:56:35.120Z,13.50
2017-09-25T00:59:02.581Z,13.60
2017-09-25T01:01:42.068Z,13.60
2017-09-25T01:04:21.479Z,13.60
2017-09-25T01:06:48.959Z,13.70
2017-09-25T01:09:16.432Z,13.70
2017-09-25T01:11:43.902Z,13.80
2017-09-25T01:14:11.370Z,13.80
2017-09-25T01:16:39.603Z,13.90
2017-09-25T01:19:07.079Z,13.90
2017-09-25T01:21:34.541Z,14.00
2017-09-25T01:24:02.462Z,14.00
2017-09-25T01:26:29.923Z,14.10
2017-09-25T01:28:57.403Z,14.20
2017-09-25T01:31:24.862Z,14.20
2017-09-25T01:33:52.343Z,14.20
2017-09-25T01:36:19.819Z,14.10
2017-09-25T01:38:48.057Z,14.20
2017-09-25T01:41:15.943Z,14.20
2017-09-25T01:43:43.417Z,14.10
2017-09-25T01:46:10.881Z,14.20
2017-09-25T01:48:45.052Z,14.20
2017-09-25T01:51:12.535Z,14.00
2017-09-25T01:53:40.016Z,14.20
2017-09-25T01:56:08.248Z,14.20
2017-09-25T01:58:35.706Z,14.20
2017-09-25T02:01:03.194Z,14.20
2017-09-25T02:03:30.659Z,14.20
2017-09-25T02:05:58.898Z,14.30
2017-09-25T02:08:26.377Z,14.30
2017-09-25T02:10:54.638Z,14.30
2017-09-25T02:13:22.124Z,14.30
2017-09-25T02:15:49.608Z,14.40
2017-09-25T02:18:17.840Z,14.50
2017-09-25T02:20:45.321Z,14.50
2017-09-25T02:23:12.796Z,14.50
2017-09-25T02:25:41.035Z,14.60
2017-09-25T02:28:08.501Z,14.50
2017-09-25T02:30:35.981Z,14.60
2017-09-25T02:33:04.220Z,14.60
2017-09-25T02:35:35.584Z,14.60
2017-09-25T02:38:03.060Z,14.60
2017-09-25T02:40:31.308Z,14.60
2017-09-25T02:42:58.779Z,14.60
2017-09-25T02:45:26.260Z,14.60
2017-09-25T02:47:54.492Z,14.60
2017-09-25T02:50:23.094Z,14.60
2017-09-25T02:52:50.572Z,14.60
2017-09-25T02:55:18.825Z,14.60
2017-09-25T02:57:46.291Z,14.60
2017-09-25T03:00:13.760Z,14.60
2017-09-25T03:02:41.239Z,14.70
2017-09-25T03:05:09.502Z,14.70
2017-09-25T03:07:37.749Z,14.70
2017-09-25T03:10:05.217Z,14.80
2017-09-25T03:12:32.707Z,14.70
2017-09-25T03:15:00.935Z,14.70
2017-09-25T03:17:28.416Z,14.70
2017-09-25T03:19:56.012Z,14.70
2017-09-25T03:22:23.516Z,14.70
2017-09-25T03:24:50.993Z,14.70
2017-09-25T03:27:18.490Z,14.70
2017-09-25T03:29:45.955Z,14.60
2017-09-25T03:32:13.430Z,14.60
2017-09-25T03:34:40.895Z,14.60
2017-09-25T03:37:08.380Z,14.60
2017-09-25T03:39:35.848Z,14.60
2017-09-25T03:42:03.325Z,14.70
2017-09-25T03:44:31.584Z,14.60
2017-09-25T03:46:59.835Z,14.60
2017-09-25T03:49:27.316Z,14.60
2017-09-25T03:51:54.787Z,14.70
2017-09-25T03:54:23.022Z,14.70
2017-09-25T03:56:50.509Z,14.70
2017-09-25T03:59:17.976Z,14.70
2017-09-25T04:01:45.457Z,14.80
2017-09-25T04:04:13.698Z,14.80
2017-09-25T04:06:41.180Z,14.80
2017-09-25T04:09:09.420Z,14.80
2017-09-25T04:11:36.947Z,14.80
2017-09-25T04:14:04.421Z,14.80
2017-09-25T04:16:31.888Z,14.80
2017-09-25T04:18:59.380Z,14.80
2017-09-25T04:21:26.855Z,14.80
2017-09-25T04:23:55.091Z,14.90
2017-09-25T04:26:22.569Z,14.90
2017-09-25T04:28:50.053Z,14.90
2017-09-25T04:31:18.316Z,14.90
2017-09-25T04:33:46.570Z,14.90
2017-09-25T04:36:14.032Z,14.80
2017-09-25T04:38:41.517Z,14.90
2017-09-25T04:41:09.747Z,14.90
2017-09-25T04:43:37.588Z,14.90
2017-09-25T04:46:05.052Z,14.90
2017-09-25T04:48:32.532Z,14.90
2017-09-25T04:50:59.995Z,14.90
2017-09-25T04:53:27.484Z,14.90
2017-09-25T04:55:55.724Z,14.90
2017-09-25T04:58:23.188Z,14.90
2017-09-25T05:00:50.675Z,14.90
2017-09-25T05:03:18.145Z,15.00
2017-09-25T05:05:46.388Z,15.00
2017-09-25T05:08:13.856Z,14.90
2017-09-25T05:10:41.351Z,15.00
2017-09-25T05:13:09.597Z,15.00
2017-09-25T05:15:38.775Z,15.00
2017-09-25T05:18:08.565Z,15.00
2017-09-25T05:20:36.043Z,15.00
2017-09-25T05:23:03.520Z,15.10
2017-09-25T05:25:31.004Z,15.00
2017-09-25T05:27:59.247Z,15.00
2017-09-25T05:30:26.733Z,15.10
2017-09-25T05:32:54.964Z,15.10
2017-09-25T05:35:23.217Z,15.00
2017-09-25T05:37:50.685Z,15.00
2017-09-25T05:40:18.160Z,14.90
2017-09-25T05:42:45.632Z,14.90
2017-09-25T05:45:13.115Z,14.90
2017-09-25T05:47:41.349Z,14.90
2017-09-25T05:50:08.829Z,14.80
2017-09-25T05:52:36.306Z,14.90
2017-09-25T05:55:03.788Z,14.90
2017-09-25T05:57:31.264Z,15.00
2017-09-25T05:59:58.730Z,15.00
2017-09-25T06:02:26.222Z,15.00
2017-09-25T06:04:53.684Z,15.10
2017-09-25T06:07:21.175Z,15.10
2017-09-25T06:09:49.407Z,15.10
2017-09-25T06:12:16.913Z,15.10
2017-09-25T06:14:45.142Z,15.20
2017-09-25T06:17:12.629Z,15.20
2017-09-25T06:19:40.865Z,15.20
2017-09-25T06:22:08.334Z,15.20
2017-09-25T06:24:35.810Z,15.20
2017-09-25T06:27:03.296Z,15.20
2017-09-25T06:29:31.528Z,15.30
2017-09-25T06:31:59.006Z,15.20
2017-09-25T06:34:26.487Z,15.30
2017-09-25T06:36:54.728Z,15.30
2017-09-25T06:39:22.192Z,15.20
2017-09-25T06:41:49.667Z,15.20
2017-09-25T06:44:17.904Z,15.20
2017-09-25T06:46:45.393Z,15.20
2017-09-25T06:49:12.865Z,15.20
2017-09-25T06:51:41.101Z,15.30
2017-09-25T06:54:08.567Z,15.20
2017-09-25T06:56:36.052Z,15.20
2017-09-25T06:59:04.289Z,15.30
2017-09-25T07:01:31.790Z,15.20
2017-09-25T07:04:00.034Z,15.30
2017-09-25T07:06:27.529Z,15.30
2017-09-25T07:08:55.764Z,15.30
2017-09-25T07:11:24.012Z,15.30
2017-09-25T07:13:51.483Z,15.20
2017-09-25T07:16:18.967Z,15.30
2017-09-25T07:18:46.459Z,15.30
2017-09-25T07:21:14.694Z,15.40
2017-09-25T07:23:42.168Z,15.40
2017-09-25T07:26:09.640Z,15.40
2017-09-25T07:28:37.119Z,15.40
2017-09-25T07:31:05.361Z,15.40
2017-09-25T07:33:32.836Z,15.40
2017-09-25T07:36:01.080Z,15.40
2017-09-25T07:38:28.567Z,15.40
2017-09-25T07:40:56.040Z,15.40
2017-09-25T07:43:24.295Z,15.40
2017-09-25T07:45:51.777Z,15.30
2017-09-25T07:48:20.041Z,15.50
2017-09-25T07:50:47.521Z,15.50
2017-09-25T07:53:15.007Z,15.40
2017-09-25T07:55:42.480Z,15.30
2017-09-25T07:58:09.963Z,15.20
2017-09-25T08:00:37.436Z,15.30
2017-09-25T08:03:05.691Z,15.40
2017-09-25T08:05:33.213Z,15.40
2017-09-25T08:08:00.922Z,15.50
2017-09-25T08:10:28.400Z,15.60
2017-09-25T08:12:57.304Z,15.90
2017-09-25T08:15:24.781Z,15.90
2017-09-25T08:17:52.262Z,15.90
2017-09-25T08:20:19.744Z,16.00
2017-09-25T08:22:54.071Z,16.10
2017-09-25T08:25:21.556Z,16.10
2017-09-25T08:27:49.800Z,16.20
2017-09-25T08:30:17.298Z,16.20
2017-09-25T08:32:44.768Z,16.30
2017-09-25T08:35:12.232Z,16.30
2017-09-25T08:37:39.735Z,16.40
2017-09-25T08:40:07.215Z,16.50
2017-09-25T08:42:35.468Z,16.50
2017-09-25T08:45:02.944Z,16.50
2017-09-25T08:47:31.189Z,16.50
2017-09-25T08:49:58.764Z,16.50
2017-09-25T08:52:26.249Z,16.50
2017-09-25T08:54:54.489Z,16.50
2017-09-25T08:57:21.967Z,16.50
2017-09-25T08:59:49.442Z,16.50
2017-09-25T09:02:17.686Z,16.60
2017-09-25T09:04:45.184Z,16.60
2017-09-25T09:07:13.428Z,16.70
2017-09-25T09:09:40.896Z,16.70
2017-09-25T09:12:08.359Z,16.70
2017-09-25T09:14:36.620Z,16.80
2017-09-25T09:17:04.100Z,16.80
2017-09-25T09:19:32.352Z,16.80
2017-09-25T09:21:59.830Z,16.70
2017-09-25T09:24:27.316Z,16.80
2017-09-25T09:26:54.801Z,16.80
2017-09-25T09:29:22.278Z,16.90
2017-09-25T09:31:49.765Z,16.80
2017-09-25T09:34:17.252Z,16.80
2017-09-25T09:36:44.721Z,16.90
2017-09-25T09:39:12.207Z,16.90
2017-09-25T09:41:39.688Z,16.90
2017-09-25T09:44:07.191Z,16.90
2017-09-25T09:46:34.654Z,16.90
2017-09-25T09:49:02.143Z,16.90
2017-09-25T09:51:29.624Z,16.80
2017-09-25T09:53:57.421Z,16.80
2017-09-25T09:56:24.904Z,16.80
2017-09-25T09:58:52.384Z,16.80
2017-09-25T10:01:19.848Z,16.80
2017-09-25T10:03:47.323Z,16.80
2017-09-25T10:09:07.731Z,16.80
2017-09-25T10:11:35.206Z,16.80
2017-09-25T10:14:03.444Z,16.70
2017-09-25T10:16:30.928Z,16.70
2017-09-25T10:18:58.399Z,16.70
2017-09-25T10:21:25.880Z,16.60
2017-09-25T10:23:53.344Z,16.60
2017-09-25T10:26:20.829Z,16.60
2017-09-25T10:28:48.295Z,16.60
2017-09-25T10:31:15.792Z,16.60
2017-09-25T10:33:43.259Z,16.60
2017-09-25T10:36:11.520Z,16.50
2017-09-25T10:38:38.987Z,16.50
2017-09-25T10:41:07.232Z,16.50
2017-09-25T10:43:34.762Z,16.50
2017-09-25T10:46:02.532Z,16.50
2017-09-25T10:48:30.008Z,16.40
2017-09-25T10:50:57.512Z,16.40
2017-09-25T10:53:25.746Z,16.50
2017-09-25T10:55:53.233Z,16.50
2017-09-25T10:58:20.696Z,16.40
2017-09-25T11:00:48.176Z,16.50
2017-09-25T11:03:16.416Z,16.80
2017-09-25T11:05:43.901Z,16.80
2017-09-25T11:08:12.144Z,17.10
2017-09-25T11:10:39.620Z,17.10
2017-09-25T11:13:07.101Z,17.20
2017-09-25T11:15:35.328Z,17.30
2017-09-25T11:18:02.803Z,17.30
2017-09-25T11:20:30.280Z,17.30
2017-09-25T11:22:57.759Z,17.30
2017-09-25T11:25:25.984Z,17.30
2017-09-25T11:27:53.463Z,17.30
2017-09-25T11:30:20.931Z,17.30
2017-09-25T11:32:48.419Z,17.40
2017-09-25T11:35:15.889Z,17.40
2017-09-25T11:37:43.384Z,17.20
2017-09-25T11:40:10.851Z,17.10
2017-09-25T11:42:38.323Z,17.00
2017-09-25T11:45:05.796Z,16.90
2017-09-25T11:47:34.029Z,16.90
2017-09-25T11:50:01.504Z,16.80
2017-09-25T11:52:28.983Z,16.80
2017-09-25T11:54:57.217Z,16.60
2017-09-25T11:57:26.338Z,16.60
2017-09-25T11:59:53.800Z,16.60
2017-09-25T12:02:21.280Z,16.60
2017-09-25T12:04:49.511Z,16.60
2017-09-25T12:07:16.991Z,16.60
2017-09-25T12:09:44.455Z,16.60
2017-09-25T12:12:11.935Z,16.70
2017-09-25T12:14:40.176Z,16.40
2017-09-25T12:17:07.657Z,16.40
2017-09-25T12:19:35.901Z,16.30
2017-09-25T12:22:03.371Z,16.30
2017-09-25T12:24:30.844Z,16.20
2017-09-25T12:26:58.324Z,16.20
2017-09-25T12:29:25.797Z,16.30
2017-09-25T12:31:53.288Z,16.20
2017-09-25T12:34:20.750Z,16.10
2017-09-25T12:36:48.240Z,16.10
2017-09-25T12:39:15.703Z,16.10
2017-09-25T12:41:43.948Z,16.40
2017-09-25T12:44:11.414Z,16.30
2017-09-25T12:46:38.895Z,16.50
2017-09-25T12:49:07.136Z,16.30
2017-09-25T12:51:34.618Z,16.30
2017-09-25T12:54:02.909Z,16.40
2017-09-25T12:56:31.148Z,16.60
2017-09-25T12:58:58.652Z,16.60
2017-09-25T13:01:26.924Z,16.70
2017-09-25T13:03:54.408Z,16.70
2017-09-25T13:06:21.892Z,16.70
2017-09-25T13:08:49.388Z,16.80
2017-09-25T13:11:16.857Z,16.80
2017-09-25T13:13:44.336Z,16.90
2017-09-25T13:16:11.832Z,17.00
2017-09-25T13:18:39.305Z,17.00
2017-09-25T13:21:06.776Z,17.00
2017-09-25T13:23:34.268Z,17.00
2017-09-25T13:26:02.505Z,17.10
2017-09-25T13:28:29.989Z,17.00
2017-09-25T13:30:58.237Z,16.80
2017-09-25T13:33:25.726Z,16.80
2017-09-25T13:35:53.946Z,16.50
2017-09-25T13:38:21.435Z,16.50
2017-09-25T13:40:48.907Z,16.40
2017-09-25T13:43:16.502Z,16.40
2017-09-25T13:45:44.018Z,16.50
2017-09-25T13:48:11.528Z,16.60
2017-09-25T13:50:39.021Z,16.70
2017-09-25T13:53:06.522Z,16.70
2017-09-25T13:55:33.998Z,16.60
2017-09-25T13:58:01.474Z,16.60
2017-09-25T14:03:01.802Z,16.70
2017-09-25T14:05:29.297Z,16.80
2017-09-25T14:07:56.772Z,16.90
2017-09-25T14:10:25.000Z,17.10
2017-09-25T14:12:52.480Z,17.10
2017-09-25T14:15:19.952Z,17.20
2017-09-25T14:17:47.441Z,17.20
2017-09-25T14:20:16.488Z,17.40
2017-09-25T14:22:43.996Z,17.30
2017-09-25T14:25:11.440Z,17.50
2017-09-25T14:27:39.685Z,17.70
2017-09-25T14:30:07.187Z,17.70
2017-09-25T14:32:35.406Z,17.60
2017-09-25T14:35:02.891Z,17.60
2017-09-25T14:37:30.355Z,17.40
2017-09-25T14:39:57.850Z,17.40
2017-09-25T14:42:25.325Z,17.40
2017-09-25T14:44:52.824Z,17.40
2017-09-25T14:47:20.300Z,17.50
2017-09-25T14:49:48.545Z,17.30
2017-09-25T14:52:16.040Z,17.30
2017-09-25T14:54:44.300Z,17.10
2017-09-25T14:57:11.767Z,17.10
2017-09-25T14:59:40.021Z,17.00
2017-09-25T15:02:07.752Z,17.00
2017-09-25T15:04:35.223Z,17.00
2017-09-25T15:07:02.691Z,16.90
2017-09-25T15:09:30.184Z,16.90
2017-09-25T15:11:58.421Z,16.90
2017-09-25T15:14:25.896Z,16.90
2017-09-25T15:16:53.367Z,16.90
2017-09-25T15:19:20.836Z,16.90
2017-09-25T15:21:49.081Z,16.80
2017-09-25T15:24:16.563Z,16.80
2017-09-25T15:26:44.037Z,16.80
2017-09-25T15:29:12.284Z,16.80
2017-09-25T15:31:39.752Z,16.80
2017-09-25T15:34:07.222Z,16.80
2017-09-25T15:36:35.475Z,16.80
2017-09-25T15:39:02.959Z,16.80
2017-09-25T15:41:31.200Z,16.70
2017-09-25T15:43:58.674Z,16.70
2017-09-25T15:46:26.155Z,16.60
2017-09-25T15:48:54.383Z,16.60
2017-09-25T15:51:21.872Z,16.60
2017-09-25T15:53:51.116Z,16.40
2017-09-25T15:56:18.604Z,16.50
2017-09-25T15:58:46.073Z,16.40
2017-09-25T16:01:13.548Z,16.50
2017-09-25T16:03:41.011Z,16.40
2017-09-25T16:06:08.491Z,16.40
2017-09-25T16:08:35.965Z,16.30
2017-09-25T16:11:03.436Z,16.30
2017-09-25T16:13:30.919Z,16.20
2017-09-25T16:15:58.390Z,16.10
2017-09-25T16:18:25.872Z,16.10
2017-09-25T16:20:54.108Z,16.10
2017-09-25T16:23:22.355Z,16.10
2017-09-25T16:25:49.827Z,16.00
2017-09-25T16:28:17.302Z,16.00
2017-09-25T16:30:44.783Z,15.90
2017-09-25T16:33:12.250Z,15.70
2017-09-25T16:35:40.487Z,15.60
2017-09-25T16:38:07.964Z,15.60
2017-09-25T16:40:35.431Z,15.50
2017-09-25T16:43:02.913Z,15.50
2017-09-25T16:45:31.145Z,15.40
2017-09-25T16:47:58.633Z,15.40
2017-09-25T16:50:26.107Z,15.40
2017-09-25T16:52:54.356Z,15.30
2017-09-25T16:55:21.837Z,15.30
2017-09-25T16:57:50.076Z,15.20
2017-09-25T17:00:17.551Z,15.20
2017-09-25T17:02:45.032Z,15.10
2017-09-25T17:05:13.270Z,15.00
2017-09-25T17:07:40.756Z,15.00
2017-09-25T17:10:08.228Z,15.00
2017-09-25T17:12:36.465Z,14.90
2017-09-25T17:15:03.955Z,14.90
2017-09-25T17:17:32.192Z,14.80
2017-09-25T17:19:59.680Z,14.80
2017-09-25T17:22:27.208Z,14.80
2017-09-25T17:24:54.680Z,14.70
2017-09-25T17:27:22.163Z,14.70
2017-09-25T17:29:49.635Z,14.70
2017-09-25T17:32:17.880Z,14.70
2017-09-25T17:34:45.366Z,14.70
2017-09-25T17:37:13.608Z,14.70
2017-09-25T17:39:41.088Z,14.70
2017-09-25T17:42:08.587Z,14.70
2017-09-25T17:44:36.060Z,14.70
2017-09-25T17:47:03.528Z,14.60
2017-09-25T17:49:31.771Z,14.50
2017-09-25T17:51:59.244Z,14.50
2017-09-25T17:54:26.724Z,14.50
2017-09-25T17:56:54.198Z,14.40
2017-09-25T17:59:21.668Z,14.40
2017-09-25T18:01:49.150Z,14.40
2017-09-25T18:04:18.192Z,14.20
2017-09-25T18:06:45.663Z,14.20
2017-09-25T18:09:13.151Z,14.20
2017-09-25T18:11:41.396Z,14.10
2017-09-25T18:14:08.873Z,14.10
2017-09-25T18:16:36.360Z,14.10
2017-09-25T18:19:04.600Z,14.00
2017-09-25T18:21:32.076Z,14.00
2017-09-25T18:24:00.310Z,14.00
2017-09-25T18:26:27.795Z,13.90
2017-09-25T18:28:55.278Z,13.90
2017-09-25T18:31:23.523Z,13.90
2017-09-25T18:33:51.001Z,13.90
2017-09-25T18:36:21.436Z,14.00
2017-09-25T18:38:49.668Z,14.00
2017-09-25T18:41:17.151Z,14.00
2017-09-25T18:43:44.627Z,14.00
2017-09-25T18:46:12.876Z,14.00
2017-09-25T18:48:40.339Z,14.00
2017-09-25T18:51:07.828Z,14.10
2017-09-25T18:53:36.068Z,13.90
2017-09-25T18:56:03.552Z,13.90
2017-09-25T18:58:31.027Z,13.90
2017-09-25T19:00:59.263Z,14.00
2017-09-25T19:03:26.749Z,13.90
2017-09-25T19:05:55.009Z,14.00
2017-09-25T19:08:22.480Z,14.00
2017-09-25T19:10:49.973Z,14.00
2017-09-25T19:13:18.229Z,14.00
2017-09-25T19:15:46.496Z,14.00
2017-09-25T19:18:18.258Z,14.00
2017-09-25T19:20:45.753Z,14.10
2017-09-25T19:23:13.226Z,14.10
2017-09-25T19:25:40.741Z,14.20
2017-09-25T19:28:08.996Z,14.20
2017-09-25T19:30:36.467Z,14.20
2017-09-25T19:33:04.702Z,14.30
2017-09-25T19:35:32.176Z,14.20
2017-09-25T19:38:00.419Z,14.20
2017-09-25T19:40:27.902Z,14.20
2017-09-25T19:42:55.396Z,14.30
2017-09-25T19:45:23.629Z,14.30
2017-09-25T19:47:55.609Z,14.30
2017-09-25T19:53:24.516Z,14.20
2017-09-25T19:55:58.543Z,14.30
2017-09-25T19:58:41.852Z,14.30
2017-09-25T20:01:09.328Z,14.30
2017-09-25T20:03:36.807Z,14.30
2017-09-25T20:06:05.908Z,14.30
2017-09-25T20:08:34.157Z,14.30
2017-09-25T20:11:03.518Z,14.30
2017-09-25T20:13:31.024Z,14.30
2017-09-25T20:16:09.168Z,14.30
2017-09-25T20:18:37.406Z,14.40
2017-09-25T20:21:04.875Z,14.40
2017-09-25T20:23:32.368Z,14.30
2017-09-25T20:25:59.843Z,14.30
2017-09-25T20:28:27.372Z,14.20
2017-09-25T20:30:55.627Z,14.20
2017-09-25T20:33:23.096Z,14.20
2017-09-25T20:35:51.339Z,14.20
2017-09-25T20:38:18.810Z,14.20
2017-09-25T20:40:50.943Z,14.20
2017-09-25T20:43:20.200Z,14.20
2017-09-25T20:45:48.448Z,14.20
2017-09-25T20:48:15.916Z,14.20
2017-09-25T20:50:43.387Z,14.20
2017-09-25T20:53:11.641Z,14.20
2017-09-25T20:55:39.124Z,14.20
2017-09-25T20:58:06.586Z,14.30
2017-09-25T21:00:34.835Z,14.30
2017-09-25T21:03:02.304Z,14.30
2017-09-25T21:05:29.814Z,14.30
2017-09-25T21:07:57.299Z,14.30
2017-09-25T21:10:24.768Z,14.30
2017-09-25T21:12:52.245Z,14.30
2017-09-25T21:15:19.727Z,14.40
2017-09-25T21:17:47.969Z,14.40
2017-09-25T21:20:15.441Z,14.40
2017-09-25T21:22:42.945Z,14.40
2017-09-25T21:25:10.420Z,14.50
2017-09-25T21:27:41.391Z,14.50
2017-09-25T21:30:08.865Z,14.50
2017-09-25T21:32:37.105Z,14.50
2017-09-25T21:35:04.576Z,14.50
2017-09-25T21:37:32.096Z,14.60
2017-09-25T21:39:59.567Z,14.50
2017-09-25T21:42:27.047Z,14.50
2017-09-25T21:44:54.528Z,14.60
2017-09-25T21:47:22.000Z,14.50
2017-09-25T21:49:50.240Z,14.60
2017-09-25T21:52:17.719Z,14.60
2017-09-25T21:54:45.194Z,14.60
2017-09-25T21:57:13.467Z,14.60
2017-09-25T21:59:41.712Z,14.70
2017-09-25T22:02:09.183Z,14.60
2017-09-25T22:04:36.668Z,14.70
2017-09-25T22:07:04.913Z,14.60
2017-09-25T22:09:32.384Z,14.60
2017-09-25T22:11:59.867Z,14.70
2017-09-25T22:14:27.327Z,14.70
2017-09-25T22:16:54.807Z,14.70
2017-09-25T22:19:22.275Z,14.80
2017-09-25T22:21:49.800Z,14.80
2017-09-25T22:24:18.053Z,14.80
2017-09-25T22:26:46.304Z,14.80
2017-09-25T22:29:13.776Z,14.80
2017-09-25T22:31:41.266Z,14.80
2017-09-25T22:34:09.513Z,14.80
2017-09-25T22:36:36.983Z,14.80
2017-09-25T22:39:05.159Z,14.90
2017-09-25T22:41:32.628Z,14.90
2017-09-25T22:44:05.684Z,14.90
2017-09-25T22:46:33.250Z,14.90
2017-09-25T22:49:00.730Z,14.90
2017-09-25T22:51:29.037Z,14.90
2017-09-25T22:53:56.512Z,14.90
2017-09-25T22:56:23.970Z,15.00
2017-09-25T22:58:51.457Z,15.00
2017-09-25T23:01:18.919Z,14.90
2017-09-25T23:04:04.086Z,15.00
2017-09-25T23:06:31.556Z,15.00
2017-09-25T23:08:59.028Z,15.00
2017-09-25T23:11:29.171Z,15.00
2017-09-25T23:13:56.655Z,14.90
2017-09-25T23:16:24.127Z,14.90
2017-09-25T23:18:51.608Z,14.90
2017-09-25T23:21:19.076Z,15.00
2017-09-25T23:23:46.547Z,15.00
2017-09-25T23:26:14.787Z,15.00
2017-09-25T23:28:42.259Z,15.00
2017-09-25T23:34:14.495Z,14.90
2017-09-25T23:36:43.298Z,15.00
2017-09-25T23:39:10.768Z,14.90
2017-09-25T23:41:38.257Z,14.90
2017-09-25T23:44:05.724Z,14.90
2017-09-25T23:46:33.214Z,14.90
2017-09-25T23:49:00.693Z,14.80
2017-09-25T23:51:28.175Z,14.90
2017-09-25T23:53:55.639Z,14.90
2017-09-25T23:56:23.131Z,14.90
2017-09-25T23:58:51.367Z,14.90
